createdAt,value
2022-10-20T00:00:00.255Z,0.0
2022-10-20T00:05:00.230Z,0.0
2022-10-20T00:10:00.268Z,0.0
2022-10-20T00:15:00.262Z,0.0
2022-10-20T00:20:00.262Z,0.0
2022-10-20T00:25:00.288Z,0.0
2022-10-20T00:30:00.379Z,0.0
2022-10-20T00:35:00.296Z,0.0
2022-10-20T00:40:00.261Z,0.0
2022-10-20T00:45:00.260Z,0.0
2022-10-20T00:50:00.344Z,0.0
2022-10-20T00:55:00.257Z,0.0
2022-10-20T01:00:00.301Z,0.0
2022-10-20T01:05:00.259Z,0.0
2022-10-20T01:10:00.415Z,0.0
2022-10-20T01:15:00.234Z,0.0
2022-10-20T01:20:00.265Z,0.0
2022-10-20T01:25:00.289Z,0.0
2022-10-20T01:30:00.271Z,0.3
2022-10-20T01:35:00.258Z,0.0
2022-10-20T01:40:00.301Z,0.0
2022-10-20T01:45:00.281Z,0.0
2022-10-20T01:50:00.247Z,0.0
2022-10-20T01:55:00.254Z,0.0
2022-10-20T02:00:00.311Z,0.0
2022-10-20T02:05:00.224Z,0.0
2022-10-20T02:10:00.460Z,0.0
2022-10-20T02:15:00.278Z,0.0
2022-10-20T02:20:00.256Z,0.0
2022-10-20T02:25:00.352Z,0.0
2022-10-20T02:30:00.279Z,0.0
2022-10-20T02:35:06.804Z,0.0
2022-10-20T02:40:00.267Z,0.0
2022-10-20T02:45:00.263Z,0.0
2022-10-20T02:50:00.257Z,0.0
2022-10-20T02:55:00.279Z,0.0
2022-10-20T03:00:00.304Z,0.0
2022-10-20T03:05:00.236Z,0.0
2022-10-20T03:10:00.298Z,0.3
2022-10-20T03:15:00.274Z,0.0
2022-10-20T03:20:00.266Z,0.3
2022-10-20T03:25:00.268Z,0.1
2022-10-20T03:30:00.312Z,0.7
2022-10-20T03:35:00.221Z,0.2
2022-10-20T03:40:00.300Z,0.3
2022-10-20T03:45:00.261Z,1.3
2022-10-20T03:50:00.423Z,1.8
2022-10-20T03:55:00.217Z,2.5
2022-10-20T04:00:00.386Z,2.9
2022-10-20T04:05:00.246Z,1.9
2022-10-20T04:10:00.280Z,2.9
2022-10-20T04:15:00.264Z,1.4
2022-10-20T04:20:00.254Z,1.2
2022-10-20T04:25:00.261Z,1.4
2022-10-20T04:30:00.310Z,1.7
2022-10-20T04:35:00.241Z,1.7
2022-10-20T04:40:00.297Z,1.6
2022-10-20T04:45:00.418Z,1.1
2022-10-20T04:50:00.249Z,1.6
2022-10-20T04:55:00.306Z,0.6
2022-10-20T05:00:00.335Z,0.0
2022-10-20T05:05:00.332Z,0.1
2022-10-20T05:10:00.266Z,0.0
2022-10-20T05:15:00.274Z,0.9
2022-10-20T05:20:00.302Z,1.9
2022-10-20T05:25:31.814Z,3.0
2022-10-20T05:30:00.318Z,1.0
2022-10-20T05:35:00.241Z,0.1
2022-10-20T05:40:00.269Z,0.0
2022-10-20T05:45:00.270Z,0.0
2022-10-20T05:50:00.268Z,0.0
2022-10-20T05:55:00.263Z,0.0
2022-10-20T06:00:00.353Z,0.0
2022-10-20T06:05:00.247Z,0.0
2022-10-20T06:10:00.331Z,0.0
2022-10-20T06:15:00.433Z,0.0
2022-10-20T06:20:00.274Z,0.3
2022-10-20T06:25:00.273Z,2.0
2022-10-20T06:30:00.291Z,1.2
2022-10-20T06:35:00.283Z,1.9
2022-10-20T06:40:00.289Z,2.6
2022-10-20T06:45:00.273Z,2.4
2022-10-20T06:50:00.294Z,3.8
2022-10-20T06:55:00.272Z,3.9
2022-10-20T07:00:00.277Z,2.8
2022-10-20T07:05:00.299Z,2.4
2022-10-20T07:10:00.268Z,3.1
2022-10-20T07:15:00.279Z,2.8
2022-10-20T07:20:00.257Z,4.4
2022-10-20T07:25:00.268Z,5.8
2022-10-20T07:30:00.270Z,3.9
2022-10-20T07:35:00.223Z,2.8
2022-10-20T07:40:00.252Z,4.0
2022-10-20T07:45:00.288Z,3.3
2022-10-20T07:50:00.256Z,2.6
2022-10-20T07:55:06.436Z,2.1
2022-10-20T08:00:00.293Z,1.7
2022-10-20T08:05:00.236Z,3.8
2022-10-20T08:10:00.439Z,1.9
2022-10-20T08:15:00.288Z,3.1
2022-10-20T08:20:03.762Z,4.3
2022-10-20T08:25:00.300Z,3.7
2022-10-20T08:30:22.745Z,2.5
2022-10-20T08:35:00.226Z,5.4
2022-10-20T08:40:00.273Z,3.0
2022-10-20T08:45:00.262Z,1.8
2022-10-20T08:50:00.343Z,3.7
2022-10-20T08:55:00.277Z,2.2
2022-10-20T09:00:09.044Z,2.2
2022-10-20T09:05:00.243Z,3.1
2022-10-20T09:10:00.272Z,1.7
2022-10-20T09:15:00.282Z,2.6
2022-10-20T09:20:00.354Z,8.4
2022-10-20T09:25:00.262Z,5.6
2022-10-20T09:30:00.278Z,8.1
2022-10-20T09:35:00.255Z,7.4
2022-10-20T09:40:00.399Z,4.9
2022-10-20T09:45:00.266Z,3.2
2022-10-20T09:50:01.577Z,9.7
2022-10-20T09:55:00.238Z,5.0
2022-10-20T10:00:13.429Z,9.5
2022-10-20T10:05:00.263Z,12.1
2022-10-20T10:10:05.600Z,6.9
2022-10-20T10:15:00.275Z,7.8
2022-10-20T10:20:00.269Z,9.7
2022-10-20T10:25:00.284Z,9.3
2022-10-20T10:30:00.319Z,12.4
2022-10-20T10:35:00.248Z,8.3
2022-10-20T10:40:00.262Z,7.1
2022-10-20T10:45:00.274Z,10.3
2022-10-20T10:50:00.260Z,10.2
2022-10-20T10:55:00.257Z,5.9
2022-10-20T11:00:00.307Z,5.1
2022-10-20T11:05:00.271Z,5.9
2022-10-20T11:10:00.371Z,5.1
2022-10-20T11:15:00.255Z,9.7
2022-10-20T11:20:00.256Z,5.8
2022-10-20T11:25:00.249Z,6.6
2022-10-20T11:30:00.270Z,11.0
2022-10-20T11:35:00.299Z,5.4
2022-10-20T11:40:07.842Z,6.3
2022-10-20T11:45:00.274Z,6.5
2022-10-20T11:50:00.279Z,3.5
2022-10-20T11:55:00.286Z,7.4
2022-10-20T12:00:00.313Z,9.7
2022-10-20T12:05:00.249Z,9.0
2022-10-20T12:10:00.264Z,5.8
2022-10-20T12:15:00.270Z,9.0
2022-10-20T12:20:00.286Z,7.7
2022-10-20T12:25:00.267Z,11.2
2022-10-20T12:30:00.288Z,8.7
2022-10-20T12:35:00.288Z,10.6
2022-10-20T12:40:00.335Z,8.0
2022-10-20T12:45:02.500Z,8.2
2022-10-20T12:50:00.293Z,5.7
2022-10-20T12:55:00.291Z,6.2
2022-10-20T13:00:00.328Z,7.6
2022-10-20T13:05:00.269Z,5.8
2022-10-20T13:10:04.482Z,7.4
2022-10-20T13:15:00.292Z,6.6
2022-10-20T13:20:02.013Z,8.1
2022-10-20T13:25:00.291Z,9.6
2022-10-20T13:30:00.274Z,10.2
2022-10-20T13:35:00.309Z,6.1
2022-10-20T13:40:00.278Z,5.3
2022-10-20T13:45:00.316Z,8.8
2022-10-20T13:50:00.275Z,8.3
2022-10-20T13:55:00.294Z,6.1
2022-10-20T14:00:00.273Z,1.7
2022-10-20T14:05:00.277Z,5.5
2022-10-20T14:10:00.915Z,4.5
2022-10-20T14:15:02.479Z,4.1
2022-10-20T14:20:00.276Z,3.6
2022-10-20T14:25:00.262Z,3.6
2022-10-20T14:30:00.295Z,4.0
2022-10-20T14:35:00.257Z,2.5
2022-10-20T14:40:00.272Z,5.1
2022-10-20T14:45:00.313Z,1.7
2022-10-20T14:50:00.278Z,2.6
2022-10-20T14:55:00.252Z,4.4
2022-10-20T15:00:00.309Z,3.3
2022-10-20T15:05:00.267Z,4.5
2022-10-20T15:10:05.552Z,3.2
2022-10-20T15:15:00.332Z,2.9
2022-10-20T15:20:00.300Z,1.8
2022-10-20T15:25:00.316Z,3.9
2022-10-20T15:30:00.346Z,1.5
2022-10-20T15:35:00.238Z,3.1
2022-10-20T15:40:00.272Z,2.1
2022-10-20T15:45:00.290Z,2.7
2022-10-20T15:55:00.251Z,0.7
2022-10-20T16:00:00.581Z,0.3
2022-10-20T16:05:00.229Z,1.6
2022-10-20T16:10:00.306Z,3.2
2022-10-20T16:15:00.737Z,2.1
2022-10-20T16:20:00.312Z,1.0
2022-10-20T16:25:00.271Z,0.6
2022-10-20T16:30:00.277Z,1.6
2022-10-20T16:35:13.027Z,1.8
2022-10-20T16:40:00.300Z,2.0
2022-10-20T16:45:00.656Z,0.6
2022-10-20T16:50:02.310Z,0.8
2022-10-20T16:55:00.240Z,4.4
2022-10-20T17:00:00.291Z,0.9
2022-10-20T17:05:02.004Z,2.1
2022-10-20T17:10:00.267Z,3.9
2022-10-20T17:15:00.269Z,3.4
2022-10-20T17:20:00.287Z,2.1
2022-10-20T17:25:00.231Z,3.0
2022-10-20T17:30:00.275Z,3.9
2022-10-20T17:35:00.255Z,3.3
2022-10-20T17:40:00.282Z,3.8
2022-10-20T17:45:00.317Z,1.8
2022-10-20T17:50:00.396Z,1.6
2022-10-20T17:55:00.293Z,2.5
2022-10-20T18:00:07.832Z,1.9
2022-10-20T18:05:00.227Z,3.1
2022-10-20T18:10:00.286Z,4.0
2022-10-20T18:15:00.529Z,2.7
2022-10-20T18:20:00.287Z,3.3
2022-10-20T18:25:00.234Z,2.9
2022-10-20T18:30:00.280Z,3.8
2022-10-20T18:35:00.278Z,5.4
2022-10-20T18:40:00.249Z,3.3
2022-10-20T18:45:00.259Z,1.9
2022-10-20T18:50:00.284Z,6.6
2022-10-20T18:55:00.285Z,2.6
2022-10-20T19:00:00.322Z,4.4
2022-10-20T19:05:00.306Z,2.7
2022-10-20T19:10:00.279Z,2.7
2022-10-20T19:15:00.273Z,1.0
2022-10-20T19:20:00.261Z,2.4
2022-10-20T19:25:00.264Z,3.4
2022-10-20T19:30:00.302Z,1.8
2022-10-20T19:35:00.237Z,5.4
2022-10-20T19:40:00.307Z,3.5
2022-10-20T19:45:00.249Z,3.8
2022-10-20T19:50:00.269Z,3.8
2022-10-20T19:55:00.294Z,1.2
2022-10-20T20:00:00.281Z,1.0
2022-10-20T20:05:00.251Z,1.5
2022-10-20T20:10:00.314Z,1.9
2022-10-20T20:15:00.249Z,2.9
2022-10-20T20:20:00.340Z,0.4
2022-10-20T20:25:00.918Z,0.3
2022-10-20T20:30:00.274Z,1.3
2022-10-20T20:35:00.474Z,1.2
2022-10-20T20:40:00.304Z,0.7
2022-10-20T20:45:00.246Z,0.5
2022-10-20T20:50:00.267Z,1.4
2022-10-20T20:55:00.251Z,2.7
2022-10-20T21:00:00.309Z,1.5
2022-10-20T21:05:00.291Z,2.1
2022-10-20T21:10:00.256Z,2.2
2022-10-20T21:15:00.263Z,2.0
2022-10-20T21:20:00.274Z,1.7
2022-10-20T21:25:00.268Z,0.9
2022-10-20T21:30:00.340Z,0.2
2022-10-20T21:35:00.239Z,0.4
2022-10-20T21:40:00.292Z,0.1
2022-10-20T21:45:00.266Z,1.6
2022-10-20T21:50:00.252Z,3.5
2022-10-20T21:55:00.252Z,2.2
2022-10-20T22:00:00.392Z,1.7
2022-10-20T22:05:00.230Z,2.5
2022-10-20T22:10:00.304Z,2.9
2022-10-20T22:15:00.260Z,5.3
2022-10-20T22:20:00.240Z,5.8
2022-10-20T22:25:00.266Z,6.2
2022-10-20T22:30:00.293Z,3.4
2022-10-20T22:35:00.322Z,4.4
2022-10-20T22:40:00.289Z,6.0
2022-10-20T22:45:00.250Z,6.0
2022-10-20T22:50:00.298Z,2.1
2022-10-20T22:55:00.234Z,3.2
2022-10-20T23:00:00.286Z,5.3
2022-10-20T23:05:00.244Z,4.9
2022-10-20T23:10:00.244Z,5.1
2022-10-20T23:15:00.243Z,3.9
2022-10-20T23:20:00.341Z,2.6
2022-10-20T23:25:00.255Z,3.9
2022-10-20T23:30:00.313Z,4.4
2022-10-20T23:35:00.231Z,4.5
2022-10-20T23:40:00.281Z,4.2
2022-10-20T23:45:00.264Z,3.0
2022-10-20T23:50:00.296Z,1.4
2022-10-20T23:55:00.251Z,0.9
